Adam McKennie

Olheiro-Chefe - Houston Dynamo
25 Nov 2027
Quinta-feira
Processo

Personalidade

Adaptabilidade (19) Ambição (7) Controvérsia (14) Lealdade (9) Pressão (7) Profissionalismo (9) Espírito Esportivo (9) Temperamento (10)

Perfil

Estilo de Treinamento Democrático
Licença Continental Pro
Determinação 9
Gestão de Pessoas 7
Motivação 7
Disciplina 4
Satisfação no Trabalho
100%
Fadiga
0%
Função Olheiro-Chefe
Salário 48.5K p/s
Contrato 14.03.2028

Desempenho

Comportamento Bom
Eficácia do Treinamento
38%
Desenvolvimento do Jogador
55%
Prevenção de Lesões
50%
Implementação Tática
55%

Eventos Recentes

Avaliou um jogador agora
Participou de uma reunião de recrutamento agora
Recomendou um alvo de transferência agora
Recomendou um alvo de transferência agora
Participou de uma reunião de recrutamento agora
Recomendou um alvo de transferência agora
Recomendou um alvo de transferência agora
Recomendou um alvo de transferência agora

Monitorando agora

213
Jogador Clube Status Habilidade Confiança Observado Última observação Último voto
Wessam Abou Ali Columbus Crew Ativo 118 / 133 40% 4 24.11.2027 -
Mathias Jørgensen Blackburn Rovers Ativo 127 / 123 40% 1 24.11.2027 -
Emmanuel Sabbi Vancouver Whitecaps Ativo 119 / 129 40% 4 23.11.2027 -
Tyrese Campbell Sheffield United Ativo 121 / 127 40% 1 23.11.2027 -
Louis Munteanu DC United Ativo 141 / 136 40% 2 22.11.2027 -
Luciano Cosentino Wanderers Ativo 111 / 125 40% 2 22.11.2027 -
Tiziano Dornell Danubio Ativo 108 / 122 40% 4 20.11.2027 -
Fabricio Rojas Gimnasia y Tiro Ativo 118 / 110 40% 4 19.11.2027 -
Agustín Anello Philadelphia Union Ativo 134 / 126 40% 1 19.11.2027 -
Santiago Sala Güemes Ativo 127 / 108 40% 1 17.11.2027 -
Jeremy Ebobisse Los Angeles Football Club Ativo 121 / 115 40% 1 17.11.2027 -
Bénie Traoré New York City Ativo 134 / 122 40% 6 16.11.2027 -
Jesus Ferreira Seattle Sounders Ativo 131 / 135 40% 2 16.11.2027 -
Breel Embolo Atlanta United FC Ativo 129 / 139 40% 2 15.11.2027 -
Rodrigo Bogarín Barracas Central Ativo 139 / 117 40% 2 15.11.2027 -
Martín Ojeda Orlando City Ativo 124 / 142 40% 3 13.11.2027 -
Rafael Navarro St. Louis CITY SC Ativo 115 / 131 40% 1 13.11.2027 -
Ezekiel Kwame Alladoh Philadelphia Union Ativo 112 / 125 40% 2 12.11.2027 -
Armindo Sieb Los Angeles Football Club Ativo 128 / 118 40% 1 12.11.2027 -
Fernando Mimbacas Juventud Ativo 114 / 112 40% 3 11.11.2027 -
Ignacio Ramírez Newell's Old Boys Ativo 123 / 134 40% 1 11.11.2027 -
Juan Camilo Córdoba Deportivo Pereira Ativo 95 / 103 40% 2 07.11.2027 -
Mauro Carrizo Atlético Tucumán Ativo 93 / 104 40% 1 07.11.2027 -
Nicolás Cordero Aldosivi Ativo 113 / 127 40% 1 05.11.2027 -
Jefry Zapata Danubio Ativo 127 / 117 40% 2 04.11.2027 -
Ignacio Fernández Boston River Ativo 83 / 98 40% 1 04.11.2027 -
Luis Otávio Colorado Rapids Ativo 99 / 112 40% 1 04.11.2027 -
Godwin Oham Warri Wolves Ativo 75 / 87 40% 3 03.11.2027 -
Esquerdinha Shrewsbury Town Ativo 137 / 114 40% 1 02.11.2027 -
Lucas Camejo River Plate Ativo 105 / 102 40% 1 02.11.2027 -
Tiago Gordillo San Miguel Ativo 86 / 98 40% 1 01.11.2027 -
Malick Yalcouyé Brighton Ativo 137 / 126 40% 1 31.10.2027 -
Alexander Díaz Deportivo Riestra Ativo 135 / 127 40% 1 29.10.2027 -
Juan Rocca Gimnasia y Tiro Ativo 93 / 105 40% 2 28.10.2027 -
Celías Ingenthron Vélez Ativo 126 / 115 40% 1 28.10.2027 -
Olaniyi Saheed Kwara United Ativo 109 / 101 40% 1 28.10.2027 -
Gianluca Pugliese Güemes Ativo 101 / 99 40% 1 28.10.2027 -
Alexis Cuello San Lorenzo Ativo 133 / 120 40% 2 27.10.2027 -
Agustín Módica Gimnasia y Esgrima Ativo 136 / 111 40% 1 25.10.2027 -
Adalberto Peñaranda Deportivo Tachira Ativo 122 / 123 40% 2 23.10.2027 -
Alonso Martínez New York City Ativo 133 / 122 40% 2 23.10.2027 -
Gift Udoh Ikorodu City Ativo 94 / 86 40% 1 23.10.2027 -
Ronan Kpakio Cardiff City Ativo 106 / 137 40% 1 23.10.2027 -
Luca Franco Arsenal Ativo 107 / 117 40% 1 22.10.2027 -
Luca Martínez Dupuy Godoy Cruz Ativo 125 / 110 40% 1 22.10.2027 -
Eric Ramírez Llaneros Ativo 96 / 118 40% 1 20.10.2027 -
Matthew Litherland Rotherham United Ativo 98 / 118 40% 1 19.10.2027 -
Ricky Atletico Venezuela Ativo 80 / 90 40% 1 19.10.2027 -
Luca Langoni Colorado Rapids Ativo 124 / 132 40% 1 18.10.2027 -
Mikkel Hope Haugesund Ativo 86 / 103 40% 2 17.10.2027 -
Matías Canedo Rampla Juniors Ativo 74 / 96 40% 1 17.10.2027 -
José Correa Deportivo Tachira Ativo 74 / 96 40% 2 16.10.2027 -
Hosea Michael Remo Stars Ativo 70 / 92 40% 1 16.10.2027 -
Misael Sosa Godoy Cruz Ativo 113 / 112 40% 1 13.10.2027 -
Kévin Denkey FC Cincinnati Ativo 116 / 135 40% 1 13.10.2027 Mais informações
Alejo Cruz Juventud Ativo 130 / 115 40% 3 12.10.2027 -
Indiana Vassilev Philadelphia Union Ativo 133 / 115 40% 1 12.10.2027 -
Theo Corbeanu Toronto FC Ativo 140 / 125 40% 2 09.10.2027 -
Agustín Paz Progreso Ativo 125 / 122 40% 1 09.10.2027 -
Ayden Heaven Luton Town Ativo 150 / 140 40% 1 08.10.2027 -
Trey Nyoni Rotherham United Ativo 137 / 135 40% 1 08.10.2027 -
Sebastián Cocimano Nueva Chicago Ativo 121 / 121 40% 1 06.10.2027 -
Ignacio Yepez Cerrito Ativo 112 / 102 40% 1 06.10.2027 -
Josh Sargent Toronto FC Ativo 136 / 121 40% 1 05.10.2027 -
Esteban da Silva Racing Ativo 128 / 111 40% 1 03.10.2027 -
Matías Sosa Arsenal Ativo 98 / 123 40% 1 02.10.2027 -
Leandro Suhr Boston River Ativo 134 / 125 40% 3 01.10.2027 -
Lucas Carrizo Plaza Colonia Ativo 100 / 125 40% 1 30.09.2027 -
Cheikh Sabaly Vancouver Whitecaps Ativo 128 / 128 40% 2 28.09.2027 -
Ivo Costantino Rentistas Ativo 118 / 111 40% 1 28.09.2027 -
Lisandro Cabrera Maipú Ativo 98 / 110 40% 2 27.09.2027 -
Leonardo Campana New England Revolution Ativo 143 / 131 40% 1 24.09.2027 -
Jorge Obregón Deportivo Pasto Ativo 97 / 117 40% 1 21.09.2027 -
Alexis Domínguez Chacarita Juniors Ativo 114 / 115 40% 2 17.09.2027 -
Agustín Gallo Tristán Suárez Ativo 100 / 124 40% 1 17.09.2027 -
Brandon Vázquez Austin FC Ativo 119 / 121 40% 1 16.09.2027 -
Augusto Berrondo Tristán Suárez Ativo 90 / 104 40% 1 14.09.2027 -
Uche Jaguar Kwara United Ativo 103 / 105 40% 1 13.09.2027 -
Emiliano Saliadarre Miramar Misiones Ativo 95 / 108 40% 1 09.09.2027 -
Lucas Ríos Atlanta Ativo 121 / 124 40% 1 07.09.2027 -
Javier Martínez Almirante Brown Ativo 103 / 106 40% 1 06.09.2027 -
Aaron Collins Milton Keynes Dons Perdido 121 / 114 40% 3 22.07.2027 -
Mathias Jørgensen Blackburn Rovers Perdido 115 / 123 40% 2 22.07.2027 -
Joaquín Valiente FC Dallas Ativo 116 / 111 48% 1 19.07.2027 -
Joe Gelhardt Hull City Perdido 149 / 125 40% 2 12.07.2027 -
Christ Inao Oulaï Fiorentina Perdido 120 / 152 40% 3 08.07.2027 -
Ibrahim Sabiu Bendel Insurance Ativo 84 / 97 40% 2 08.07.2027 -
Razvan Mitrita San Diego Football Club Ativo 118 / 120 66% 1 08.07.2027 Aprovar
Keagan Tau Ajax Cape Town Ativo 92 / 97 40% 3 06.07.2027 -
Aune Heggebø West Bromwich Albion Perdido 137 / 118 40% 2 06.07.2027 -
Peter Shalulile Mamelodi Sundowns Perdido 152 / 120 40% 5 06.07.2027 -
Matías Gómez Granada Negociando 101 / 126 40% 2 06.07.2027 -
Joel McGregor Swindon Town Ativo 97 / 100 40% 3 04.07.2027 -
Sam Nombe Milton Keynes Dons Ativo 96 / 123 40% 2 02.07.2027 -
Mees Rijks Bristol Rovers Ativo 96 / 105 40% 3 30.06.2027 -
Mohamed-Ali Cho Hull City Ativo 155 / 145 40% 5 30.06.2027 -
Caleb Yirenkyi Coventry City Ativo 148 / 154 40% 2 29.06.2027 -
Will Evans Mansfield Town Ativo 116 / 96 40% 1 29.06.2027 -
Jan Bürger Gillingham Ativo 117 / 116 40% 1 29.06.2027 -
Juan Giménez Celta Ativo 122 / 127 40% 2 27.06.2027 -
Lewis Morgan SuperSport United Ativo 149 / 120 40% 3 27.06.2027 -
Lorent Tolaj Plymouth Argyle Ativo 131 / 121 40% 4 27.06.2027 -
Bradley Fink Wycombe Wanderers Ativo 121 / 111 40% 2 23.06.2027 -
Callum Lang Preston Ativo 120 / 114 40% 1 23.06.2027 -
Marvelous Freedom Ikorodu City Ativo 107 / 84 40% 1 21.06.2027 -
Ernie Weaver AFC Wimbledon Ativo 104 / 124 40% 1 21.06.2027 -
Richard Koné Queens Park Rangers Ativo 140 / 129 40% 1 17.06.2027 -
Riley Owen Trento Ativo 104 / 110 40% 3 15.06.2027 -
Hany Mukhtar Spezia Ativo 157 / 137 40% 2 15.06.2027 -
Zian Flemming Ipswich Town Ativo 150 / 123 40% 2 15.06.2027 -
Ezra Mayers West Ham United Ativo 135 / 129 40% 1 14.06.2027 -
Joel Ezra Enyimba Ativo 91 / 93 40% 1 14.06.2027 -
Stephen Humphrys Bradford City Ativo 92 / 118 40% 2 09.06.2027 -
Elijah Adebayo Luton Town Ativo 127 / 130 40% 1 09.06.2027 -
Marezi Portsmouth Ativo 131 / 127 40% 1 07.06.2027 -
David Damboama El-Kanemi Warriors Ativo 72 / 101 40% 1 06.06.2027 -
Fuzy Taylor Medeama Ativo 68 / 95 40% 1 05.06.2027 -
Mpho Khethang AS Police Ativo 91 / 96 40% 1 05.06.2027 -
Edwin Asamoah Berekum Chelsea Ativo 93 / 94 40% 1 04.06.2027 -
Ibrahim Maza Bayer Leverkusen Ativo 132 / 142 40% 2 03.06.2027 -
Morgan Whittaker Middlesbrough Ativo 144 / 139 40% 2 01.06.2027 -
Bertrand Traoré Sunderland Ativo 135 / 142 40% 2 30.05.2027 -
Davide Bartesaghi AC Milan Ativo 121 / 140 40% 2 29.05.2027 -
Luis Vázquez Birmingham Ativo 146 / 119 40% 2 29.05.2027 -
Percy Jali Free State Stars Ativo 107 / 111 40% 1 29.05.2027 -
Ilyas Ansah Hull City Ativo 120 / 129 40% 2 24.05.2027 -
Dom Ballard Leyton Orient Ativo 138 / 113 40% 3 23.05.2027 -
Shayne Lavery Cambridge United Ativo 121 / 98 40% 1 21.05.2027 -
Iwan Morgan Grimsby Town Ativo 106 / 109 40% 1 19.05.2027 -
Aaron Drinan Swindon Town Ativo 102 / 96 40% 1 18.05.2027 -
Will Lankshear Middlesbrough Ativo 107 / 122 40% 3 16.05.2027 -
Oli McBurnie Hull City Ativo 129 / 138 40% 1 15.05.2027 -
Tom Cannon Sheffield United Ativo 118 / 126 40% 2 14.05.2027 -
Patson Daka Leicester City Ativo 121 / 126 40% 2 09.05.2027 -
Marcus Browne AFC Wimbledon Ativo 92 / 103 40% 1 07.05.2027 -
Tyreece Campbell Charlton Athletic Ativo 104 / 117 40% 1 06.05.2027 -
Josh Windass Wrexham Ativo 118 / 130 40% 1 06.05.2027 -
Bojan Radulović Huddersfield Town Ativo 102 / 117 40% 1 05.05.2027 -
Kwame Opoku Asante Kotoko Ativo 99 / 98 40% 2 13.04.2027 -
Themba Ngcobo SuperSport United Ativo 135 / 118 40% 1 08.04.2027 -
Robert Mizo Ashanti Gold Ativo 95 / 115 40% 1 17.03.2027 -
Evidence Makgopa Orlando Pirates Ativo 124 / 105 40% 1 17.03.2027 -
Ryan Porteous Los Angeles Football Club Ativo 113 / 110 48% 1 08.03.2027 -
Bradley Phiri LNZ Ativo 112 / 112 66% 1 01.03.2027 Aprovar
Pablo Solari Galatasaray Ativo 128 / 128 68% 1 14.02.2027 Aprovar
Khama Dolly Utrecht Negociando 123 / 124 67% 1 14.02.2027 Aprovar
Marquinhos Spartak Moscow Ativo 128 / 128 66% 1 14.02.2027 Aprovar
Lucas Bergvall Tottenham Ativo 164 / 146 40% 1 14.02.2027 -
Kazunari Kita Real Sociedad Ativo 89 / 111 40% 1 14.02.2027 -
Othmane Maamma Watford Ativo 130 / 126 40% 2 11.02.2027 -
Scott Twine Bristol City Ativo 138 / 123 40% 1 11.02.2027 -
Jason Knight Bristol City Ativo 123 / 123 40% 1 07.02.2027 -
Daniel Kyerewaa Reading Ativo 97 / 104 40% 2 06.02.2027 -
Paris Maghoma Norwich City Ativo 128 / 133 40% 1 06.02.2027 -
Florentino Luís Ipswich Town Ativo 142 / 148 40% 2 05.02.2027 -
David Turnbull Cardiff City Ativo 121 / 115 40% 1 05.02.2027 -
Mohamed Belloumi Hull City Ativo 139 / 145 40% 1 04.02.2027 -
Ali Ahmed Norwich City Ativo 132 / 130 40% 1 04.02.2027 -
Tom Fellows Southampton Ativo 153 / 138 40% 1 03.02.2027 -
Cian Ashford Cardiff City Ativo 136 / 114 40% 2 02.02.2027 -
Max Bird Birmingham Ativo 112 / 121 40% 1 02.02.2027 -
Marcelo Allende Mamelodi Sundowns Ativo 142 / 139 40% 6 01.02.2027 -
Tomáš Rigo Stoke City Ativo 134 / 125 40% 1 31.01.2027 -
Jack Rudoni Coventry City Ativo 118 / 142 40% 1 31.01.2027 -
Matvey Kislyak CSKA Moscow Ativo 142 / 142 40% 2 29.01.2027 -
Jack McGlynn Stoke City Ativo 128 / 144 40% 1 29.01.2027 -
Christos Mouzakitis Hull City Ativo 135 / 127 40% 1 29.01.2027 -
Josh Smith Accrington Stanley Ativo 83 / 89 40% 1 27.01.2027 -
Tommy Conway Middlesbrough Ativo 120 / 130 40% 1 23.01.2027 -
Carlos Vicente Birmingham Ativo 131 / 138 40% 1 23.01.2027 -
Kwadwo Baah Watford Ativo 139 / 138 40% 1 22.01.2027 -
Joseph Wakaso Wa All Stars Ativo 98 / 98 40% 2 21.01.2027 -
Nathan Ordaz Metalist Ativo 98 / 122 40% 1 20.01.2027 -
Giacomo Raspadori Atalanta Ativo 134 / 140 40% 1 19.01.2027 -
Thalente Mbatha Orlando Pirates Ativo 110 / 121 40% 2 18.01.2027 -
Josh King Chelsea Ativo 146 / 143 40% 1 18.01.2027 -
Jesús Rodríguez Como Ativo 154 / 153 40% 1 17.01.2027 -
Reda Khadra Qarabag Ativo 132 / 132 40% 3 15.01.2027 -
Ronwen Phiri Platinum Stars Ativo 111 / 105 40% 2 14.01.2027 -
Jabu Mokone Bidvest Wits Ativo 98 / 90 40% 1 13.01.2027 -
Daniel Vernattus Metalist Ativo 83 / 107 40% 1 12.01.2027 -
Oswin Appollis Orlando Pirates Ativo 130 / 120 40% 6 10.01.2027 -
Surprise Manthosi Polokwane City Ativo 103 / 93 40% 1 09.01.2027 -
Yussif Saidu Zaragoza Ativo 105 / 130 40% 1 09.01.2027 -
Cemran Dansin Orlando Pirates Ativo 91 / 109 40% 1 08.01.2027 -
Hlompho Lorch Ajax Cape Town Ativo 92 / 96 40% 3 05.01.2027 -
Christian Krasnodar Ativo 135 / 130 40% 5 04.01.2027 -
Romano Schmid Frosinone Ativo 134 / 131 40% 1 03.01.2027 -
Mduduzi Shabalala Kaizer Chiefs Ativo 126 / 124 40% 2 31.12.2026 -
Williams Manyama SuperSport United Ativo 134 / 122 40% 3 25.12.2026 -
Rubens Dinamo Moscow Ativo 132 / 135 40% 1 25.12.2026 -
Max Conway Bolton Wanderers Ativo 103 / 123 40% 1 24.12.2026 -
Aidomo Emakhu Oxford United Ativo 124 / 110 40% 2 19.12.2026 -
Tomás O'Connor Gimnasia y Esgrima Ativo 126 / 127 40% 1 09.12.2026 -
Bongani Modiba Black Aces Ativo 104 / 112 40% 2 02.12.2026 -
Mandla Erasmus SuperSport United Ativo 139 / 110 40% 5 24.11.2026 -
Aarón Molinas Defensa y Justicia Ativo 133 / 130 40% 1 24.11.2026 -
Siyanda Ndlovu Bloemfontein Celtic Ativo 96 / 112 40% 2 21.11.2026 -
Angelo Gattermayer Wolfsberger AC Ativo 132 / 118 40% 1 21.11.2026 -
Jack Currie Oxford United Ativo 130 / 118 40% 1 08.11.2026 -
Tshepang Moremi Orlando Pirates Ativo 101 / 108 40% 1 30.10.2026 -
Conrad Wallem Austria Wien Ativo 135 / 138 40% 1 27.10.2026 -
George Earthy Reading Ativo 113 / 127 40% 1 26.10.2026 -
Iván Angulo Orlando City Ativo 123 / 128 40% 1 25.10.2026 -
Nicolás Fernández Mercau Shakhtar Ativo 147 / 125 40% 1 23.10.2026 -
Kelvin Yeboah Minnesota United FC Ativo 122 / 127 40% 1 17.10.2026 -
Caolan Boyd-Munce Wycombe Wanderers Ativo 97 / 126 40% 1 16.10.2026 -
João Gomes Aston Villa Ativo 160 / 149 40% 1 07.10.2026 -
Onuorah Onyedika Kun Khalifat Ativo 70 / 74 40% 1 14.09.2026 -
Harrison McMahon Chelsea Ativo 106 / 104 40% 1 13.09.2026 -
Onyia Henry Bendel Insurance Ativo 99 / 93 40% 1 12.09.2026 -
Issa Yusuf Shooting Stars Ativo 69 / 80 40% 1 11.09.2026 -
Keagan Phiri Platinum Stars Ativo 106 / 97 40% 1 09.09.2026 -